ADDS METAR Data INFO
IDs: Format: Raw Decoded Include TAF

Data at: 1118 UTC 21 Feb 2018

PFKW 201456Z AUTO 14006KT 6SM BR CLR M03/M04 A3047 RMK AO2 SLP320 T10331039 50007 FZRANO
PFKW 201356Z AUTO 20007KT 6SM BR CLR M03/M03 A3051 RMK AO2 SLP331 T10281033 FZRANO
PFKW 201256Z AUTO 20008KT 6SM BR CLR M02/M02 A3051 RMK AO2 SLP331 T10221022 FZRANO
PFKW 201156Z AUTO 20009KT 6SM BR CLR M02/M02 A3045 RMK AO2 SLP313 T10171017 10011 21017 51035 FZRANO
PFKW 201056Z AUTO 21008KT 6SM BR FEW005 SCT020 M01/M01 A3043 RMK AO2 SLP304 T10061011 FZRANO
PFKW 200956Z AUTO 20009KT 6SM BR CLR 00/M01 A3039 RMK AO2 SLP290 T00001006 FZRANO
PFKW 200908Z AUTO 21011KT 6SM BR FEW005 SCT026 00/M01 A3035 RMK AO2 FZRANO
PFKW 200856Z AUTO 21010KT 6SM BR FEW005 BKN026 BKN034 01/00 A3035 RMK AO2 SLP277 T00060000 400331028 53037 FZRANO
PFKW 200846Z AUTO 21011KT 6SM BR SCT005 BKN026 OVC034 01/00 A3034 RMK AO2 FZRANO
PFKW 200821Z AUTO 22012KT 6SM BR SCT007 OVC036 01/00 A3033 RMK AO2 FZRANO
PFKW 200803Z AUTO 22010KT 6SM BR BKN007 OVC036 01/00 A3031 RMK AO2 FZRANO
PFKW 200756Z AUTO 22012KT 6SM BR SCT007 OVC038 01/00 A3031 RMK AO2 SLP264 T00110000 FZRANO
PFKW 200705Z AUTO 21015KT 6SM BR SCT005 OVC044 01/01 A3028 RMK AO2 FZRANO
PFKW 200656Z AUTO 21014KT 6SM BR BKN005 OVC044 01/01 A3027 RMK AO2 CIG 004V008 SLP249 T00110006 FZRANO
PFKW 200556Z AUTO 20015G21KT 7SM OVC005 01/01 A3024 RMK AO2 RAE31 SLP241 P0000 60000 T00110006 10028 20011 53033 FZRANO
PFKW 200456Z AUTO 20015KT 5SM -RA BR OVC005 01/01 A3020 RMK AO2 CIG 004V010 SLP228 P0000 T00110006 FZRANO
PFKW 200413Z AUTO 19016G21KT 4SM -RA BR BKN007 OVC011 01/01 A3018 RMK AO2 P0000 FZRANO
PFKW 200356Z AUTO 19018KT 4SM -RA BR OVC013 01/01 A3017 RMK AO2 RAE06B47 SLP217 P0000 T00110006 FZRANO
PFKW 200256Z AUTO 18019G23KT 9SM -RA OVC013 02/00 A3014 RMK AO2 PK WND 17027/0157 RAB56 SLP208 P0000 60000 T00170000 53003 FZRANO
PFKW 200156Z AUTO 17019G25KT 10SM OVC017 02/M01 A3014 RMK AO2 PK WND 17026/0142 RAB01E14SNE01 SLP205 P0000 T00171006 FZRANO
PFKW 200056Z AUTO 17019G28KT 9SM -SN OVC023 01/M01 A3014 RMK AO2 PK WND 17028/0047 RAE07UPB20E25SNB07E20B25 SLP207 P0000 T00111006 FZRANO
PFKW 200021Z AUTO 17019G28KT 7SM UP SCT022 BKN029 OVC034 02/M01 A3014 RMK AO2 PK WND 17028/0014 RAE07UPB20SNB07E20 P0000 FZRANO
PFKW 192356Z AUTO 18022G31KT 10SM -RA FEW022 OVC034 03/M02 A3013 RMK AO2 PK WND 17031/2351 RAB12 SLP205 P0000 60000 T00281017 10033 21011 50007